sensor_id;sensor_type;location;lat;lon;timestamp;pressure;altitude;pressure_sealevel;temperature;humidity
65754;BME280;52488;47.502;18.940;2022-11-15T00:00:37;98512.47;;;5.36;87.25
65754;BME280;52488;47.502;18.940;2022-11-15T00:01:40;98509.56;;;5.42;87.09
65754;BME280;52488;47.502;18.940;2022-11-15T00:02:43;98509.44;;;5.47;86.70
65754;BME280;52488;47.502;18.940;2022-11-15T00:03:50;98509.25;;;5.45;86.71
65754;BME280;52488;47.502;18.940;2022-11-15T00:04:54;98515.75;;;5.42;86.78
65754;BME280;52488;47.502;18.940;2022-11-15T00:06:02;98523.75;;;5.40;86.73
65754;BME280;52488;47.502;18.940;2022-11-15T00:07:05;98517.03;;;5.41;86.79
65754;BME280;52488;47.502;18.940;2022-11-15T00:08:09;98525.19;;;5.41;86.71
65754;BME280;52488;47.502;18.940;2022-11-15T00:09:12;98516.84;;;5.39;86.75
65754;BME280;52488;47.502;18.940;2022-11-15T00:10:15;98524.50;;;5.48;86.48
65754;BME280;52488;47.502;18.940;2022-11-15T00:11:18;98519.03;;;5.41;86.34
65754;BME280;52488;47.502;18.940;2022-11-15T00:12:21;98521.22;;;5.42;86.45
65754;BME280;52488;47.502;18.940;2022-11-15T00:13:25;98524.47;;;5.41;86.42
65754;BME280;52488;47.502;18.940;2022-11-15T00:14:28;98519.34;;;5.37;86.62
65754;BME280;52488;47.502;18.940;2022-11-15T00:15:31;98523.75;;;5.40;86.62
65754;BME280;52488;47.502;18.940;2022-11-15T00:16:34;98518.28;;;5.40;86.62
65754;BME280;52488;47.502;18.940;2022-11-15T00:17:37;98522.28;;;5.39;86.59
65754;BME280;52488;47.502;18.940;2022-11-15T00:18:40;98521.94;;;5.43;86.67
65754;BME280;52488;47.502;18.940;2022-11-15T00:19:51;98524.66;;;5.43;86.42
65754;BME280;52488;47.502;18.940;2022-11-15T00:20:54;98525.19;;;5.41;86.60
65754;BME280;52488;47.502;18.940;2022-11-15T00:21:56;98516.63;;;5.37;86.68
65754;BME280;52488;47.502;18.940;2022-11-15T00:22:59;98513.56;;;5.41;86.48
65754;BME280;52488;47.502;18.940;2022-11-15T00:24:02;98508.66;;;5.39;86.54
65754;BME280;52488;47.502;18.940;2022-11-15T00:25:06;98508.13;;;5.41;86.57
65754;BME280;52488;47.502;18.940;2022-11-15T00:26:13;98509.41;;;5.40;86.65
65754;BME280;52488;47.502;18.940;2022-11-15T00:27:16;98513.38;;;5.39;86.63
65754;BME280;52488;47.502;18.940;2022-11-15T00:28:19;98505.25;;;5.46;86.40
65754;BME280;52488;47.502;18.940;2022-11-15T00:29:22;98508.84;;;5.41;86.43
65754;BME280;52488;47.502;18.940;2022-11-15T00:30:43;98497.41;;;5.43;86.54
65754;BME280;52488;47.502;18.940;2022-11-15T00:31:47;98507.09;;;5.51;86.28
65754;BME280;52488;47.502;18.940;2022-11-15T00:32:50;98505.97;;;5.47;86.24
65754;BME280;52488;47.502;18.940;2022-11-15T00:33:54;98509.03;;;5.43;86.38
65754;BME280;52488;47.502;18.940;2022-11-15T00:34:57;98500.69;;;5.41;86.46
65754;BME280;52488;47.502;18.940;2022-11-15T00:36:02;98502.13;;;5.42;86.67
65754;BME280;52488;47.502;18.940;2022-11-15T00:37:07;98498.69;;;5.42;86.54
65754;BME280;52488;47.502;18.940;2022-11-15T00:38:12;98496.84;;;5.37;86.71
65754;BME280;52488;47.502;18.940;2022-11-15T00:39:16;98495.38;;;5.36;87.01
65754;BME280;52488;47.502;18.940;2022-11-15T00:40:19;98501.75;;;5.38;86.99
65754;BME280;52488;47.502;18.940;2022-11-15T00:41:23;98506.31;;;5.43;86.86
65754;BME280;52488;47.502;18.940;2022-11-15T00:42:26;98504.84;;;5.42;86.99
65754;BME280;52488;47.502;18.940;2022-11-15T00:43:30;98505.41;;;5.41;87.29
65754;BME280;52488;47.502;18.940;2022-11-15T00:44:34;98501.94;;;5.40;87.38
65754;BME280;52488;47.502;18.940;2022-11-15T00:45:38;98501.22;;;5.40;87.58
65754;BME280;52488;47.502;18.940;2022-11-15T00:46:41;98499.00;;;5.38;87.86
65754;BME280;52488;47.502;18.940;2022-11-15T00:47:45;98495.56;;;5.38;88.09
65754;BME280;52488;47.502;18.940;2022-11-15T00:48:49;98492.13;;;5.37;88.26
65754;BME280;52488;47.502;18.940;2022-11-15T00:49:52;98500.69;;;5.41;88.20
65754;BME280;52488;47.502;18.940;2022-11-15T00:50:56;98498.69;;;5.42;88.30
65754;BME280;52488;47.502;18.940;2022-11-15T00:51:59;98504.84;;;5.42;88.51
65754;BME280;52488;47.502;18.940;2022-11-15T00:53:02;98502.13;;;5.42;88.67
65754;BME280;52488;47.502;18.940;2022-11-15T00:54:05;98501.59;;;5.44;88.67
65754;BME280;52488;47.502;18.940;2022-11-15T00:55:18;98500.88;;;5.43;88.51
65754;BME280;52488;47.502;18.940;2022-11-15T00:56:21;98502.34;;;5.44;88.55
65754;BME280;52488;47.502;18.940;2022-11-15T00:57:24;98506.31;;;5.43;88.67
65754;BME280;52488;47.502;18.940;2022-11-15T00:58:28;98499.41;;;5.42;88.77
65754;BME280;52488;47.502;18.940;2022-11-15T00:59:31;98505.59;;;5.43;88.86
65754;BME280;52488;47.502;18.940;2022-11-15T01:00:34;98504.38;;;5.51;88.59
65754;BME280;52488;47.502;18.940;2022-11-15T01:01:37;98496.53;;;5.48;88.50
65754;BME280;52488;47.502;18.940;2022-11-15T01:02:40;98495.66;;;5.53;88.38
65754;BME280;52488;47.502;18.940;2022-11-15T01:03:43;98500.91;;;5.51;88.24
65754;BME280;52488;47.502;18.940;2022-11-15T01:04:47;98495.97;;;5.49;88.35
65754;BME280;52488;47.502;18.940;2022-11-15T01:05:50;98495.06;;;5.47;88.56
65754;BME280;52488;47.502;18.940;2022-11-15T01:06:53;98494.16;;;5.44;88.59
65754;BME280;52488;47.502;18.940;2022-11-15T01:07:56;98494.16;;;5.44;88.61
65754;BME280;52488;47.502;18.940;2022-11-15T01:09:08;98485.44;;;5.46;88.68
65754;BME280;52488;47.502;18.940;2022-11-15T01:10:11;98480.00;;;5.46;88.73
65754;BME280;52488;47.502;18.940;2022-11-15T01:11:15;98476.37;;;5.51;88.73
65754;BME280;52488;47.502;18.940;2022-11-15T01:12:17;98478.56;;;5.52;88.80
65754;BME280;52488;47.502;18.940;2022-11-15T01:13:20;98482.75;;;5.53;88.96
65754;BME280;52488;47.502;18.940;2022-11-15T01:14:23;98474.03;;;5.55;88.95
65754;BME280;52488;47.502;18.940;2022-11-15T01:15:27;98475.50;;;5.56;89.00
65754;BME280;52488;47.502;18.940;2022-11-15T01:16:29;98478.41;;;5.58;89.20
65754;BME280;52488;47.502;18.940;2022-11-15T01:17:32;98483.31;;;5.60;89.19
65754;BME280;52488;47.502;18.940;2022-11-15T01:18:37;98480.25;;;5.63;89.20
65754;BME280;52488;47.502;18.940;2022-11-15T01:19:40;98475.53;;;5.64;89.25
65754;BME280;52488;47.502;18.940;2022-11-15T01:20:43;98474.25;;;5.65;89.43
65754;BME280;52488;47.502;18.940;2022-11-15T01:21:48;98473.19;;;5.68;89.49
65754;BME280;52488;47.502;18.940;2022-11-15T01:22:51;98466.28;;;5.67;89.45
65754;BME280;52488;47.502;18.940;2022-11-15T01:23:55;98465.00;;;5.68;89.43
65754;BME280;52488;47.502;18.940;2022-11-15T01:24:58;98462.63;;;5.72;89.44
65754;BME280;52488;47.502;18.940;2022-11-15T01:26:03;98469.75;;;5.75;89.59
65754;BME280;52488;47.502;18.940;2022-11-15T01:27:06;98462.84;;;5.81;89.30
65754;BME280;52488;47.502;18.940;2022-11-15T01:28:10;98459.94;;;5.79;89.21
65754;BME280;52488;47.502;18.940;2022-11-15T01:29:13;98466.12;;;5.80;89.34
65754;BME280;52488;47.502;18.940;2022-11-15T01:30:16;98460.84;;;5.82;89.38
65754;BME280;52488;47.502;18.940;2022-11-15T01:31:20;98465.06;;;5.83;89.48
65754;BME280;52488;47.502;18.940;2022-11-15T01:32:23;98466.50;;;5.84;89.54
65754;BME280;52488;47.502;18.940;2022-11-15T01:33:26;98458.34;;;5.84;89.56
65754;BME280;52488;47.502;18.940;2022-11-15T01:34:29;98460.50;;;5.86;89.73
65754;BME280;52488;47.502;18.940;2022-11-15T01:35:32;98458.16;;;5.90;89.57
65754;BME280;52488;47.502;18.940;2022-11-15T01:36:35;98454.00;;;5.89;89.56
65754;BME280;52488;47.502;18.940;2022-11-15T01:37:38;98457.44;;;5.89;89.61
65754;BME280;52488;47.502;18.940;2022-11-15T01:38:43;98456.91;;;5.91;89.67
65754;BME280;52488;47.502;18.940;2022-11-15T01:39:46;98462.56;;;5.93;90.01
65754;BME280;52488;47.502;18.940;2022-11-15T01:40:49;98455.09;;;5.93;89.86
65754;BME280;52488;47.502;18.940;2022-11-15T01:41:51;98457.81;;;5.93;89.83
65754;BME280;52488;47.502;18.940;2022-11-15T01:42:54;98457.47;;;5.97;89.76
65754;BME280;52488;47.502;18.940;2022-11-15T01:45:38;98457.66;;;5.99;89.92
65754;BME280;52488;47.502;18.940;2022-11-15T01:46:45;98453.13;;;6.01;89.95
65754;BME280;52488;47.502;18.940;2022-11-15T01:47:52;98449.84;;;6.03;89.86
65754;BME280;52488;47.502;18.940;2022-11-15T01:48:59;98452.97;;;6.07;89.75
65754;BME280;52488;47.502;18.940;2022-11-15T01:50:13;98451.34;;;6.12;89.58
65754;BME280;52488;47.502;18.940;2022-11-15T01:51:19;98452.22;;;6.14;89.36
65754;BME280;52488;47.502;18.940;2022-11-15T01:52:25;98452.78;;;6.13;89.27
65754;BME280;52488;47.502;18.940;2022-11-15T01:53:29;98439.31;;;6.15;89.32
65754;BME280;52488;47.502;18.940;2022-11-15T01:54:35;98444.06;;;6.14;89.27
65754;BME280;52488;47.502;18.940;2022-11-15T01:55:38;98449.50;;;6.14;89.23
65754;BME280;52488;47.502;18.940;2022-11-15T01:56:57;98453.69;;;6.15;89.25
65754;BME280;52488;47.502;18.940;2022-11-15T01:58:03;98448.94;;;6.16;89.27
65754;BME280;52488;47.502;18.940;2022-11-15T01:59:08;98451.16;;;6.17;89.18
65754;BME280;52488;47.502;18.940;2022-11-15T02:00:12;98444.59;;;6.20;89.15
65754;BME280;52488;47.502;18.940;2022-11-15T02:01:15;98438.59;;;6.22;88.86
65754;BME280;52488;47.502;18.940;2022-11-15T02:02:18;98440.78;;;6.23;88.79
65754;BME280;52488;47.502;18.940;2022-11-15T02:03:27;98441.16;;;6.27;88.77
65754;BME280;52488;47.502;18.940;2022-11-15T02:04:41;98440.63;;;6.29;88.75
65754;BME280;52488;47.502;18.940;2022-11-15T02:05:45;98437.34;;;6.30;88.72
65754;BME280;52488;47.502;18.940;2022-11-15T02:06:48;98438.59;;;6.37;88.66
65754;BME280;52488;47.502;18.940;2022-11-15T02:07:51;98438.97;;;6.41;88.39
65754;BME280;52488;47.502;18.940;2022-11-15T02:08:56;98436.44;;;6.43;88.33
65754;BME280;52488;47.502;18.940;2022-11-15T02:10:04;98434.41;;;6.44;88.28
65754;BME280;52488;47.502;18.940;2022-11-15T02:11:09;98438.63;;;6.45;88.12
65754;BME280;52488;47.502;18.940;2022-11-15T02:12:16;98443.16;;;6.42;88.30
65754;BME280;52488;47.502;18.940;2022-11-15T02:13:20;98440.06;;;6.46;88.25
65754;BME280;52488;47.502;18.940;2022-11-15T02:14:24;98435.19;;;6.44;88.19
65754;BME280;52488;47.502;18.940;2022-11-15T02:15:34;98431.53;;;6.42;88.26
65754;BME280;52488;47.502;18.940;2022-11-15T02:18:37;98438.97;;;6.41;88.12
65754;BME280;52488;47.502;18.940;2022-11-15T02:19:53;98430.97;;;6.43;88.05
65754;BME280;52488;47.502;18.940;2022-11-15T02:24:35;98420.06;;;6.43;88.18
65754;BME280;52488;47.502;18.940;2022-11-15T02:29:10;98421.34;;;6.50;87.84
65754;BME280;52488;47.502;18.940;2022-11-15T02:33:10;98413.31;;;6.52;88.10
65754;BME280;52488;47.502;18.940;2022-11-15T02:34:39;98408.97;;;6.56;87.77
65754;BME280;52488;47.502;18.940;2022-11-15T02:35:59;98410.59;;;6.59;87.46
65754;BME280;52488;47.502;18.940;2022-11-15T02:37:25;98414.41;;;6.56;87.34
65754;BME280;52488;47.502;18.940;2022-11-15T02:38:46;98413.31;;;6.59;87.39
65754;BME280;52488;47.502;18.940;2022-11-15T02:40:16;98412.97;;;6.55;87.29
65754;BME280;52488;47.502;18.940;2022-11-15T02:41:24;98414.06;;;6.52;88.19
65754;BME280;52488;47.502;18.940;2022-11-15T02:42:33;98411.31;;;6.52;87.87
65754;BME280;52488;47.502;18.940;2022-11-15T02:44:02;98410.59;;;6.52;87.79
65754;BME280;52488;47.502;18.940;2022-11-15T02:45:09;98411.31;;;6.52;87.63
65754;BME280;52488;47.502;18.940;2022-11-15T02:46:22;98412.59;;;6.51;87.71
65754;BME280;52488;47.502;18.940;2022-11-15T02:47:47;98404.41;;;6.51;87.86
65754;BME280;52488;47.502;18.940;2022-11-15T02:48:52;98410.59;;;6.52;87.89
65754;BME280;52488;47.502;18.940;2022-11-15T02:50:00;98409.31;;;6.53;87.81
65754;BME280;52488;47.502;18.940;2022-11-15T02:51:05;98407.87;;;6.52;87.87
65754;BME280;52488;47.502;18.940;2022-11-15T02:52:08;98414.22;;;6.54;87.87
65754;BME280;52488;47.502;18.940;2022-11-15T02:53:11;98407.31;;;6.53;87.89
65754;BME280;52488;47.502;18.940;2022-11-15T02:54:17;98408.75;;;6.54;87.80
65754;BME280;52488;47.502;18.940;2022-11-15T02:56:31;98412.97;;;6.55;87.53
65754;BME280;52488;47.502;18.940;2022-11-15T02:57:44;98412.22;;;6.55;87.53
65754;BME280;52488;47.502;18.940;2022-11-15T02:59:00;98410.59;;;6.52;87.39
65754;BME280;52488;47.502;18.940;2022-11-15T03:00:15;98409.16;;;6.51;87.33
65754;BME280;52488;47.502;18.940;2022-11-15T03:06:08;98408.41;;;6.58;87.46
65754;BME280;52488;47.502;18.940;2022-11-15T03:07:37;98400.78;;;6.56;87.60
65754;BME280;52488;47.502;18.940;2022-11-15T03:10:11;98413.69;;;6.56;87.93
65754;BME280;52488;47.502;18.940;2022-11-15T03:11:21;98402.56;;;6.54;88.12
65754;BME280;52488;47.502;18.940;2022-11-15T03:12:40;98404.03;;;6.55;88.14
65754;BME280;52488;47.502;18.940;2022-11-15T03:15:18;98405.69;;;6.58;88.17
65754;BME280;52488;47.502;18.940;2022-11-15T03:16:35;98400.94;;;6.58;88.40
65754;BME280;52488;47.502;18.940;2022-11-15T03:17:45;98406.03;;;6.62;88.24
65754;BME280;52488;47.502;18.940;2022-11-15T03:18:59;98399.84;;;6.61;88.29
65754;BME280;52488;47.502;18.940;2022-11-15T03:20:06;98397.66;;;6.60;88.57
65754;BME280;52488;47.502;18.940;2022-11-15T03:21:11;98397.28;;;6.64;88.44
65754;BME280;52488;47.502;18.940;2022-11-15T03:22:18;98391.13;;;6.63;88.48
65754;BME280;52488;47.502;18.940;2022-11-15T03:23:21;98390.19;;;6.60;88.67
65754;BME280;52488;47.502;18.940;2022-11-15T03:24:25;98396.94;;;6.59;88.68
65754;BME280;52488;47.502;18.940;2022-11-15T03:25:31;98398.94;;;6.59;88.94
65754;BME280;52488;47.502;18.940;2022-11-15T03:26:38;98386.00;;;6.59;88.98
65754;BME280;52488;47.502;18.940;2022-11-15T03:27:44;98383.84;;;6.58;88.99
65754;BME280;52488;47.502;18.940;2022-11-15T03:28:56;98385.84;;;6.57;88.99
65754;BME280;52488;47.502;18.940;2022-11-15T03:30:05;98385.13;;;6.57;89.12
65754;BME280;52488;47.502;18.940;2022-11-15T03:31:12;98383.13;;;6.57;89.16
65754;BME280;52488;47.502;18.940;2022-11-15T03:32:44;98375.66;;;6.58;89.25
65754;BME280;52488;47.502;18.940;2022-11-15T03:33:51;98376.38;;;6.58;89.27
65754;BME280;52488;47.502;18.940;2022-11-15T03:35:12;98374.38;;;6.59;89.57
65754;BME280;52488;47.502;18.940;2022-11-15T03:36:17;98376.19;;;6.64;89.36
65754;BME280;52488;47.502;18.940;2022-11-15T03:37:23;98376.34;;;6.66;89.24
65754;BME280;52488;47.502;18.940;2022-11-15T03:38:30;98378.19;;;6.64;89.51
65754;BME280;52488;47.502;18.940;2022-11-15T03:39:35;98380.19;;;6.63;89.73
65754;BME280;52488;47.502;18.940;2022-11-15T03:40:54;98375.28;;;6.61;89.87
65754;BME280;52488;47.502;18.940;2022-11-15T03:43:16;98375.47;;;6.64;89.79
65754;BME280;52488;47.502;18.940;2022-11-15T03:46:28;98363.09;;;6.62;89.86
65754;BME280;52488;47.502;18.940;2022-11-15T03:47:38;98366.72;;;6.65;89.80
65754;BME280;52488;47.502;18.940;2022-11-15T03:48:47;98367.44;;;6.66;89.65
65754;BME280;52488;47.502;18.940;2022-11-15T03:50:11;98357.06;;;6.64;89.72
65754;BME280;52488;47.502;18.940;2022-11-15T03:51:15;98367.06;;;6.69;89.68
65754;BME280;52488;47.502;18.940;2022-11-15T03:52:19;98364.91;;;6.68;89.54
65754;BME280;52488;47.502;18.940;2022-11-15T03:53:22;98367.63;;;6.68;89.49
65754;BME280;52488;47.502;18.940;2022-11-15T03:54:25;98369.44;;;6.65;89.46
65754;BME280;52488;47.502;18.940;2022-11-15T03:55:28;98362.53;;;6.64;89.68
65754;BME280;52488;47.502;18.940;2022-11-15T03:56:30;98356.34;;;6.64;89.79
65754;BME280;52488;47.502;18.940;2022-11-15T03:57:33;98354.91;;;6.62;89.66
65754;BME280;52488;47.502;18.940;2022-11-15T03:58:41;98356.00;;;6.67;89.53
65754;BME280;52488;47.502;18.940;2022-11-15T03:59:44;98353.63;;;6.64;88.83
65754;BME280;52488;47.502;18.940;2022-11-15T04:00:47;98353.97;;;6.68;88.74
65754;BME280;52488;47.502;18.940;2022-11-15T04:01:50;98344.31;;;6.74;88.37
65754;BME280;52488;47.502;18.940;2022-11-15T04:02:52;98345.94;;;6.77;87.86
65754;BME280;52488;47.502;18.940;2022-11-15T04:03:55;98344.66;;;6.78;87.58
65754;BME280;52488;47.502;18.940;2022-11-15T04:04:58;98342.62;;;6.86;85.30
65754;BME280;52488;47.502;18.940;2022-11-15T04:06:00;98348.44;;;6.91;84.04
65754;BME280;52488;47.502;18.940;2022-11-15T04:07:03;98355.94;;;6.90;83.90
65754;BME280;52488;47.502;18.940;2022-11-15T04:08:06;98355.72;;;6.88;83.64
65754;BME280;52488;47.502;18.940;2022-11-15T04:09:09;98361.94;;;6.88;83.98
65754;BME280;52488;47.502;18.940;2022-11-15T04:10:12;98359.22;;;6.88;84.17
65754;BME280;52488;47.502;18.940;2022-11-15T04:11:15;98348.63;;;6.93;84.20
65754;BME280;52488;47.502;18.940;2022-11-15T04:12:17;98354.44;;;6.97;84.16
65754;BME280;52488;47.502;18.940;2022-11-15T04:13:33;98335.88;;;6.95;83.84
65754;BME280;52488;47.502;18.940;2022-11-15T04:14:36;98339.69;;;6.92;83.82
65754;BME280;52488;47.502;18.940;2022-11-15T04:15:38;98330.59;;;6.97;83.80
65754;BME280;52488;47.502;18.940;2022-11-15T04:16:41;98334.75;;;6.98;83.57
65754;BME280;52488;47.502;18.940;2022-11-15T04:17:47;98341.09;;;7.08;82.13
65754;BME280;52488;47.502;18.940;2022-11-15T04:18:53;98340.53;;;7.10;81.20
65754;BME280;52488;47.502;18.940;2022-11-15T04:20:23;98336.00;;;7.05;81.21
65754;BME280;52488;47.502;18.940;2022-11-15T04:21:46;98346.94;;;7.05;80.69
65754;BME280;52488;47.502;18.940;2022-11-15T04:23:14;98354.25;;;7.02;80.68
65754;BME280;52488;47.502;18.940;2022-11-15T04:24:36;98355.69;;;7.03;80.68
65754;BME280;52488;47.502;18.940;2022-11-15T04:25:39;98352.97;;;7.03;80.04
65754;BME280;52488;47.502;18.940;2022-11-15T04:26:42;98348.78;;;7.02;80.11
65754;BME280;52488;47.502;18.940;2022-11-15T04:27:45;98357.53;;;7.01;80.35
65754;BME280;52488;47.502;18.940;2022-11-15T04:28:49;98350.06;;;7.01;80.08
65754;BME280;52488;47.502;18.940;2022-11-15T04:30:10;98351.50;;;7.02;80.34
65754;BME280;52488;47.502;18.940;2022-11-15T04:31:13;98360.25;;;7.01;81.25
65754;BME280;52488;47.502;18.940;2022-11-15T04:32:16;98360.63;;;6.97;81.66
65754;BME280;52488;47.502;18.940;2022-11-15T04:33:19;98358.66;;;6.90;82.21
65754;BME280;52488;47.502;18.940;2022-11-15T04:34:22;98362.47;;;6.87;82.41
65754;BME280;52488;47.502;18.940;2022-11-15T04:35:25;98360.31;;;6.85;82.43
65754;BME280;52488;47.502;18.940;2022-11-15T04:36:28;98362.47;;;6.87;82.41
65754;BME280;52488;47.502;18.940;2022-11-15T04:37:50;98361.75;;;6.86;82.40
65754;BME280;52488;47.502;18.940;2022-11-15T04:38:53;98354.13;;;6.77;82.89
65754;BME280;52488;47.502;18.940;2022-11-15T04:39:56;98361.41;;;6.75;83.23
65754;BME280;52488;47.502;18.940;2022-11-15T04:40:58;98355.22;;;6.74;83.12
65754;BME280;52488;47.502;18.940;2022-11-15T04:42:01;98347.97;;;6.69;83.25
65754;BME280;52488;47.502;18.940;2022-11-15T04:43:04;98345.78;;;6.68;83.46
65754;BME280;52488;47.502;18.940;2022-11-15T04:44:06;98341.41;;;6.65;83.72
65754;BME280;52488;47.502;18.940;2022-11-15T04:45:09;98342.53;;;6.61;84.07
65754;BME280;52488;47.502;18.940;2022-11-15T04:46:12;98340.53;;;6.62;84.06
65754;BME280;52488;47.502;18.940;2022-11-15T04:47:15;98334.16;;;6.59;84.08
65754;BME280;52488;47.502;18.940;2022-11-15T04:48:18;98333.81;;;6.55;84.46
65754;BME280;52488;47.502;18.940;2022-11-15T04:49:21;98335.25;;;6.56;84.50
65754;BME280;52488;47.502;18.940;2022-11-15T04:50:24;98333.94;;;6.65;83.94
65754;BME280;52488;47.502;18.940;2022-11-15T04:51:27;98326.50;;;6.66;83.29
65754;BME280;52488;47.502;18.940;2022-11-15T04:52:29;98327.03;;;6.64;83.08
65754;BME280;52488;47.502;18.940;2022-11-15T04:53:32;98320.31;;;6.65;83.04
65754;BME280;52488;47.502;18.940;2022-11-15T04:54:35;98327.41;;;6.68;82.47
65754;BME280;52488;47.502;18.940;2022-11-15T04:55:38;98322.50;;;6.67;82.62
65754;BME280;52488;47.502;18.940;2022-11-15T04:56:41;98330.50;;;6.65;82.83
65754;BME280;52488;47.502;18.940;2022-11-15T04:57:43;98328.16;;;6.61;82.61
65754;BME280;52488;47.502;18.940;2022-11-15T04:58:50;98327.97;;;6.59;82.71
65754;BME280;52488;47.502;18.940;2022-11-15T04:59:53;98328.34;;;6.55;82.95
65754;BME280;52488;47.502;18.940;2022-11-15T05:00:56;98325.44;;;6.53;83.40
65754;BME280;52488;47.502;18.940;2022-11-15T05:01:58;98334.72;;;6.50;83.96
65754;BME280;52488;47.502;18.940;2022-11-15T05:03:01;98327.78;;;6.49;83.94
65754;BME280;52488;47.502;18.940;2022-11-15T05:04:22;98333.09;;;6.47;84.19
65754;BME280;52488;47.502;18.940;2022-11-15T05:05:25;98338.19;;;6.51;84.00
65754;BME280;52488;47.502;18.940;2022-11-15T05:06:28;98335.09;;;6.47;84.24
65754;BME280;52488;47.502;18.940;2022-11-15T05:07:31;98331.28;;;6.42;84.73
65754;BME280;52488;47.502;18.940;2022-11-15T05:08:34;98332.19;;;6.37;85.24
65754;BME280;52488;47.502;18.940;2022-11-15T05:09:37;98338.03;;;6.33;85.45
65754;BME280;52488;47.502;18.940;2022-11-15T05:10:40;98340.75;;;6.33;85.75
65754;BME280;52488;47.502;18.940;2022-11-15T05:11:42;98346.75;;;6.32;85.76
65754;BME280;52488;47.502;18.940;2022-11-15T05:12:46;98346.75;;;6.32;86.02
65754;BME280;52488;47.502;18.940;2022-11-15T05:13:49;98346.56;;;6.30;86.17
65754;BME280;52488;47.502;18.940;2022-11-15T05:14:52;98345.28;;;6.31;86.33
65754;BME280;52488;47.502;18.940;2022-11-15T05:15:55;98348.03;;;6.31;86.39
65754;BME280;52488;47.502;18.940;2022-11-15T05:16:57;98352.03;;;6.30;86.38
65754;BME280;52488;47.502;18.940;2022-11-15T05:18:00;98348.56;;;6.29;86.59
65754;BME280;52488;47.502;18.940;2022-11-15T05:19:06;98346.94;;;6.34;86.45
65754;BME280;52488;47.502;18.940;2022-11-15T05:20:10;98338.56;;;6.32;86.59
65754;BME280;52488;47.502;18.940;2022-11-15T05:21:16;98342.22;;;6.34;86.44
65754;BME280;52488;47.502;18.940;2022-11-15T05:22:19;98340.75;;;6.33;86.41
65754;BME280;52488;47.502;18.940;2022-11-15T05:23:21;98336.19;;;6.36;86.31
65754;BME280;52488;47.502;18.940;2022-11-15T05:24:24;98338.75;;;6.34;86.28
65754;BME280;52488;47.502;18.940;2022-11-15T05:25:27;98345.50;;;6.33;86.31
65754;BME280;52488;47.502;18.940;2022-11-15T05:26:29;98344.22;;;6.34;86.31
65754;BME280;52488;47.502;18.940;2022-11-15T05:27:34;98344.00;;;6.32;86.46
65754;BME280;52488;47.502;18.940;2022-11-15T05:28:38;98334.56;;;6.33;86.63
65754;BME280;52488;47.502;18.940;2022-11-15T05:29:40;98339.28;;;6.32;86.90
65754;BME280;52488;47.502;18.940;2022-11-15T05:30:43;98329.84;;;6.33;86.94
65754;BME280;52488;47.502;18.940;2022-11-15T05:31:46;98333.31;;;6.34;87.03
65754;BME280;52488;47.502;18.940;2022-11-15T05:32:49;98323.66;;;6.33;87.31
65754;BME280;52488;47.502;18.940;2022-11-15T05:33:53;98325.13;;;6.34;87.42
65754;BME280;52488;47.502;18.940;2022-11-15T05:34:57;98319.09;;;6.35;87.50
65754;BME280;52488;47.502;18.940;2022-11-15T05:36:31;98322.19;;;6.40;87.32
65754;BME280;52488;47.502;18.940;2022-11-15T05:37:34;98319.28;;;6.45;87.16
65754;BME280;52488;47.502;18.940;2022-11-15T05:38:38;98316.16;;;6.49;87.07
65754;BME280;52488;47.502;18.940;2022-11-15T05:39:41;98315.63;;;6.50;86.78
65754;BME280;52488;47.502;18.940;2022-11-15T05:40:43;98313.97;;;6.47;86.77
65754;BME280;52488;47.502;18.940;2022-11-15T05:42:01;98311.63;;;6.44;87.01
65754;BME280;52488;47.502;18.940;2022-11-15T05:43:09;98311.63;;;6.51;86.52
65754;BME280;52488;47.502;18.940;2022-11-15T05:44:15;98313.44;;;6.49;86.48
65754;BME280;52488;47.502;18.940;2022-11-15T05:45:19;98310.50;;;6.54;86.44
65754;BME280;52488;47.502;18.940;2022-11-15T05:46:28;98306.31;;;6.61;85.99
65754;BME280;52488;47.502;18.940;2022-11-15T05:47:33;98313.75;;;6.60;86.17
65754;BME280;52488;47.502;18.940;2022-11-15T05:48:43;98318.81;;;6.72;86.09
65754;BME280;52488;47.502;18.940;2022-11-15T05:49:48;98302.84;;;6.68;86.19
65754;BME280;52488;47.502;18.940;2022-11-15T05:50:53;98314.84;;;6.65;86.52
65754;BME280;52488;47.502;18.940;2022-11-15T05:51:56;98309.22;;;6.63;86.78
65754;BME280;52488;47.502;18.940;2022-11-15T05:53:00;98304.44;;;6.79;86.60
65754;BME280;52488;47.502;18.940;2022-11-15T05:54:06;98299.91;;;6.74;86.62
65754;BME280;52488;47.502;18.940;2022-11-15T05:55:10;98309.31;;;6.88;86.44
65754;BME280;52488;47.502;18.940;2022-11-15T05:56:13;98312.03;;;6.96;86.22
65754;BME280;52488;47.502;18.940;2022-11-15T05:57:17;98308.22;;;6.91;86.54
65754;BME280;52488;47.502;18.940;2022-11-15T05:58:20;98308.22;;;6.91;86.69
65754;BME280;52488;47.502;18.940;2022-11-15T05:59:23;98315.69;;;6.91;86.92
65754;BME280;52488;47.502;18.940;2022-11-15T06:00:26;98308.72;;;6.97;86.88
65754;BME280;52488;47.502;18.940;2022-11-15T06:01:31;98314.72;;;7.03;86.62
65754;BME280;52488;47.502;18.940;2022-11-15T06:02:34;98314.72;;;7.03;86.72
65754;BME280;52488;47.502;18.940;2022-11-15T06:03:37;98306.88;;;7.07;86.55
65754;BME280;52488;47.502;18.940;2022-11-15T06:04:40;98313.56;;;7.14;86.44
65754;BME280;52488;47.502;18.940;2022-11-15T06:05:42;98313.75;;;7.16;86.23
65754;BME280;52488;47.502;18.940;2022-11-15T06:06:45;98315.75;;;7.15;86.29
65754;BME280;52488;47.502;18.940;2022-11-15T06:07:48;98317.59;;;7.13;86.57
65754;BME280;52488;47.502;18.940;2022-11-15T06:08:53;98317.37;;;7.19;86.43
65754;BME280;52488;47.502;18.940;2022-11-15T06:09:56;98316.09;;;7.20;86.29
65754;BME280;52488;47.502;18.940;2022-11-15T06:11:04;98313.88;;;7.26;86.18
65754;BME280;52488;47.502;18.940;2022-11-15T06:12:07;98307.84;;;7.27;86.05
65754;BME280;52488;47.502;18.940;2022-11-15T06:13:09;98303.44;;;7.39;85.52
65754;BME280;52488;47.502;18.940;2022-11-15T06:14:12;98297.69;;;7.53;84.46
65754;BME280;52488;47.502;18.940;2022-11-15T06:15:14;98304.78;;;7.56;84.31